createdAt,value
2019-06-20T00:00:55.232Z,5.20
2019-06-20T00:03:27.865Z,5.28
2019-06-20T00:06:00.387Z,4.95
2019-06-20T00:08:33.012Z,5.28
2019-06-20T00:11:05.641Z,5.00
2019-06-20T00:13:38.018Z,4.80
2019-06-20T00:16:10.601Z,5.10
2019-06-20T00:18:43.588Z,5.30
2019-06-20T00:21:16.207Z,4.65
2019-06-20T00:23:48.848Z,4.70
2019-06-20T00:26:21.214Z,4.70
2019-06-20T00:28:53.904Z,5.17
2019-06-20T00:31:26.463Z,4.80
2019-06-20T00:33:59.066Z,5.10
2019-06-20T00:36:32.590Z,5.20
2019-06-20T00:39:07.782Z,4.35
2019-06-20T00:41:40.217Z,4.67
2019-06-20T00:44:12.846Z,4.90
2019-06-20T00:46:45.586Z,4.92
2019-06-20T00:49:18.329Z,4.95
2019-06-20T00:51:51.189Z,5.05
2019-06-20T00:54:23.764Z,4.75
2019-06-20T00:56:56.374Z,4.60
2019-06-20T00:59:28.921Z,4.75
2019-06-20T01:02:01.610Z,5.20
2019-06-20T01:04:34.069Z,4.87
2019-06-20T01:07:06.848Z,5.00
2019-06-20T01:09:39.527Z,4.87
2019-06-20T01:12:12.543Z,5.28
2019-06-20T01:14:45.125Z,5.37
2019-06-20T01:17:17.932Z,5.45
2019-06-20T01:19:50.564Z,4.92
2019-06-20T01:22:23.544Z,4.70
2019-06-20T01:24:56.225Z,5.90
2019-06-20T01:27:28.851Z,5.05
2019-06-20T01:30:01.249Z,5.03
2019-06-20T01:32:34.282Z,4.97
2019-06-20T01:35:08.341Z,4.97
2019-06-20T01:43:00.746Z,5.25
2019-06-20T01:45:45.314Z,6.35
2019-06-20T01:48:18.023Z,5.30
2019-06-20T01:50:50.706Z,5.40
2019-06-20T01:53:23.550Z,5.45
2019-06-20T01:55:55.996Z,4.97
2019-06-20T01:58:28.825Z,5.45
2019-06-20T02:01:01.456Z,5.28
2019-06-20T02:03:34.104Z,5.15
2019-06-20T02:06:07.024Z,4.95
2019-06-20T02:08:40.103Z,5.60
2019-06-20T02:11:13.150Z,5.17
2019-06-20T02:13:45.606Z,4.83
2019-06-20T02:16:18.287Z,5.20
2019-06-20T02:27:12.520Z,4.45
2019-06-20T02:29:45.146Z,4.60
2019-06-20T02:32:17.690Z,4.45
2019-06-20T02:34:50.466Z,4.30
2019-06-20T02:37:23.156Z,4.45
2019-06-20T02:39:55.938Z,4.25
2019-06-20T02:42:28.600Z,4.72
2019-06-20T02:45:01.291Z,4.80
2019-06-20T02:47:33.815Z,4.83
2019-06-20T02:50:06.892Z,4.50
2019-06-20T02:52:39.377Z,5.10
2019-06-20T02:55:13.397Z,5.12
2019-06-20T02:57:46.046Z,4.10
2019-06-20T03:00:30.529Z,4.50
2019-06-20T03:03:03.047Z,4.70
2019-06-20T03:13:21.418Z,4.75
2019-06-20T03:15:53.891Z,4.70
2019-06-20T03:18:26.218Z,4.72
2019-06-20T03:20:58.660Z,4.72
2019-06-20T03:23:31.457Z,4.97
2019-06-20T03:26:03.850Z,4.80
2019-06-20T03:28:37.022Z,5.00
2019-06-20T03:31:09.340Z,4.58
2019-06-20T03:33:41.897Z,4.65
2019-06-20T03:36:14.357Z,4.70
2019-06-20T03:38:47.023Z,4.67
2019-06-20T03:45:38.673Z,4.30
2019-06-20T03:48:11.087Z,4.67
2019-06-20T03:50:43.616Z,4.58
2019-06-20T03:53:16.085Z,4.70
2019-06-20T03:55:48.794Z,4.00
2019-06-20T03:58:21.519Z,4.17
2019-06-20T04:00:54.429Z,4.50
2019-06-20T04:03:27.209Z,4.42
2019-06-20T04:05:59.358Z,4.10
2019-06-20T04:08:32.195Z,3.90
2019-06-20T04:11:04.636Z,4.42
2019-06-20T04:13:37.228Z,4.30
2019-06-20T04:16:09.688Z,4.08
2019-06-20T04:18:42.162Z,3.75
2019-06-20T04:21:14.478Z,4.22
2019-06-20T04:23:47.063Z,3.95
2019-06-20T04:26:19.276Z,4.30
2019-06-20T04:28:51.915Z,4.20
2019-06-20T04:31:24.555Z,4.65
2019-06-20T04:33:57.211Z,4.47
2019-06-20T04:36:29.411Z,4.87
2019-06-20T04:39:15.609Z,5.15
2019-06-20T04:41:36.287Z,5.42
2019-06-20T04:44:08.794Z,5.75
2019-06-20T04:46:51.989Z,6.08
2019-06-20T04:49:24.777Z,4.40
2019-06-20T04:53:27.655Z,3.87
2019-06-20T04:55:59.973Z,3.52
2019-06-20T04:58:32.403Z,3.75
2019-06-20T05:01:05.189Z,3.62
2019-06-20T05:03:38.087Z,3.20
2019-06-20T05:06:11.569Z,3.55
2019-06-20T05:08:43.889Z,3.55
2019-06-20T05:11:16.621Z,3.67
2019-06-20T05:13:49.323Z,3.75
2019-06-20T05:16:21.871Z,3.60
2019-06-20T05:18:54.179Z,3.37
2019-06-20T05:21:26.519Z,3.25
2019-06-20T05:23:58.831Z,3.58
2019-06-20T05:26:31.753Z,3.35
2019-06-20T05:29:05.495Z,3.35
2019-06-20T05:31:38.109Z,4.08
2019-06-20T05:34:10.738Z,3.85
2019-06-20T05:36:43.412Z,3.45
2019-06-20T05:39:15.540Z,3.58
2019-06-20T05:41:48.702Z,3.55
2019-06-20T05:44:21.094Z,3.80
2019-06-20T05:47:11.205Z,3.70
2019-06-20T05:49:28.252Z,3.47
2019-06-20T05:52:00.725Z,3.55
